Time;durP1;ratioP1;P1;durP2;ratioP2;P2;SDS_P1;SDS_P2;PMS_P1;PMS_P2;Temp;Humidity;BMP_temperature;BMP_pressure;BME280_temperature;BME280_humidity;BME280_pressure;Samples;Min_cycle;Max_cycle;Signal;HPM_P1;HPM_P2
2023/01/27 00:00:34;;;;;;;;;;;;;;;15.47;49.56;102844.31;2084163;28;19936;-58
2023/01/27 00:01:37;;;;;;;;;;;;;;;15.47;49.57;102840.78;2087692;28;20037;-58
2023/01/27 00:02:39;;;;;;;;;;;;;;;15.47;49.42;102832.63;2087911;28;19977;-58
2023/01/27 00:03:41;;;;;;;;;;;;;;;15.48;49.57;102845.09;2088132;28;19929;-60
2023/01/27 00:04:43;;;;;;;;;;;;;;;15.47;49.53;102847.03;2085035;28;19969;-59
2023/01/27 00:05:46;;;;;;;;;;;;;;;15.47;49.60;102838.88;2087457;28;20384;-59
2023/01/27 00:06:47;;;;;;;;;;;;;;;15.46;49.67;102844.66;2086437;28;19951;-60
2023/01/27 00:07:50;;;;;;;;;;;;;;;15.46;49.64;102839.97;2087427;28;19925;-60
2023/01/27 00:08:52;;;;;;;;;;;;;;;15.47;49.48;102844.31;2085897;28;19936;-58
2023/01/27 00:09:54;;;;;;;;;;;;;;;15.47;49.64;102844.31;2087922;28;19929;-58
2023/01/27 00:13:25;;;;;;;;;;;;;;;15.46;49.62;102842.69;2084978;28;20391;-58
2023/01/27 00:13:42;;;;;;;;;;;;;;;15.46;49.59;102842.69;2085752;28;20291;-59
2023/01/27 00:14:44;;;;;;;;;;;;;;;15.46;49.63;102836.47;2085200;28;19928;-58
2023/01/27 00:15:46;;;;;;;;;;;;;;;15.45;49.49;102829.41;2085366;28;20379;-58
2023/01/27 00:16:48;;;;;;;;;;;;;;;15.45;49.59;102843.03;2087277;28;20058;-58
2023/01/27 00:17:51;;;;;;;;;;;;;;;15.45;49.40;102843.84;2087833;28;19928;-58
2023/01/27 00:18:53;;;;;;;;;;;;;;;15.45;49.51;102841.13;2085176;28;19928;-60
2023/01/27 00:19:55;;;;;;;;;;;;;;;15.45;49.40;102853.91;2085738;28;19932;-60
2023/01/27 00:24:58;;;;;;;;;;;;;;;15.44;49.67;102853.13;2086067;28;19933;-60
2023/01/27 00:26:01;;;;;;;;;;;;;;;15.45;49.42;102856.63;2086951;28;19932;-59
2023/01/27 00:27:04;;;;;;;;;;;;;;;15.43;49.54;102851.53;2086913;28;20388;-60
2023/01/27 00:28:07;;;;;;;;;;;;;;;15.43;49.49;102848.78;2085468;28;19932;-59
2023/01/27 00:29:11;;;;;;;;;;;;;;;15.43;49.52;102850.75;2086745;28;19958;-59
2023/01/27 00:30:12;;;;;;;;;;;;;;;15.43;49.63;102854.25;2086685;28;19932;-59
2023/01/27 00:34:00;;;;;;;;;;;;;;;15.42;49.45;102855.38;2087072;28;19936;-58
2023/01/27 00:35:04;;;;;;;;;;;;;;;15.43;49.50;102856.19;2086925;28;19936;-59
2023/01/27 00:36:07;;;;;;;;;;;;;;;15.43;49.51;102861.63;2088413;28;19956;-58
2023/01/27 00:37:08;;;;;;;;;;;;;;;15.42;49.44;102855.38;2089175;28;19929;-58
2023/01/27 00:38:11;;;;;;;;;;;;;;;15.43;49.50;102856.97;2085212;28;19925;-58
2023/01/27 00:39:13;;;;;;;;;;;;;;;15.42;49.43;102849.13;2088685;28;19972;-58
2023/01/27 00:40:18;;;;;;;;;;;;;;;15.43;49.47;102853.47;2088524;28;20410;-59
2023/01/27 00:41:22;;;;;;;;;;;;;;;15.40;49.46;102854.88;2084796;28;19946;-60
2023/01/27 00:42:25;;;;;;;;;;;;;;;15.41;49.67;102859.22;2084327;28;19971;-59
2023/01/27 00:43:27;;;;;;;;;;;;;;;15.41;49.63;102856.50;2086457;28;19924;-59
2023/01/27 00:44:32;;;;;;;;;;;;;;;15.41;49.60;102853.78;2088133;28;20387;-60
2023/01/27 00:45:50;;;;;;;;;;;;;;;15.40;49.49;102854.88;2088535;28;19928;-59
2023/01/27 00:46:52;;;;;;;;;;;;;;;15.40;49.40;102852.16;2086382;28;19944;-60
2023/01/27 00:47:54;;;;;;;;;;;;;;;15.40;49.44;102857.63;2085318;28;19929;-59
2023/01/27 00:48:57;;;;;;;;;;;;;;;15.40;49.38;102863.06;2088018;28;20307;-59
2023/01/27 00:49:58;;;;;;;;;;;;;;;15.40;49.38;102851.38;2086706;28;19948;-59
2023/01/27 00:51:01;;;;;;;;;;;;;;;15.39;49.56;102856.03;2086303;28;20429;-60
2023/01/27 00:52:02;;;;;;;;;;;;;;;15.40;49.50;102857.63;2087482;28;19933;-60
2023/01/27 00:53:05;;;;;;;;;;;;;;;15.40;49.63;102857.63;2086713;28;19935;-59
2023/01/27 00:54:07;;;;;;;;;;;;;;;15.40;49.66;102859.53;2086208;28;19935;-59
2023/01/27 00:55:10;;;;;;;;;;;;;;;15.39;49.44;102856.03;2086428;28;19928;-60
2023/01/27 00:56:12;;;;;;;;;;;;;;;15.39;49.23;102866.91;2086530;28;19928;-60
2023/01/27 00:57:14;;;;;;;;;;;;;;;15.39;49.40;102866.91;2087459;28;19974;-59
2023/01/27 00:58:16;;;;;;;;;;;;;;;15.39;49.55;102866.91;2089173;28;19929;-59
2023/01/27 00:59:19;;;;;;;;;;;;;;;15.39;49.40;102866.91;2088464;28;19933;-59
2023/01/27 01:00:22;;;;;;;;;;;;;;;15.39;49.45;102866.91;2086006;28;20455;-59
2023/01/27 01:01:25;;;;;;;;;;;;;;;15.39;49.63;102875.09;2088991;28;20287;-59
2023/01/27 01:02:27;;;;;;;;;;;;;;;15.38;49.59;102870.75;2088652;28;19925;-59
2023/01/27 01:03:31;;;;;;;;;;;;;;;15.39;49.47;102872.34;2088714;28;19925;-59
2023/01/27 01:04:32;;;;;;;;;;;;;;;15.39;49.25;102874.28;2088824;28;20036;-59
2023/01/27 01:05:35;;;;;;;;;;;;;;;15.38;49.65;102878.91;2088322;28;19948;-60
2023/01/27 01:06:36;;;;;;;;;;;;;;;15.38;49.41;102876.19;2088337;28;19929;-59
2023/01/27 01:07:39;;;;;;;;;;;;;;;15.38;49.48;102867.22;2086735;28;19933;-59
2023/01/27 01:08:41;;;;;;;;;;;;;;;15.38;49.69;102876.19;2089076;28;19928;-57
2023/01/27 01:09:44;;;;;;;;;;;;;;;15.37;49.44;102871.84;2087220;28;19937;-58
2023/01/27 01:10:45;;;;;;;;;;;;;;;15.38;49.51;102876.19;2088169;28;19925;-60
2023/01/27 01:11:48;;;;;;;;;;;;;;;15.38;49.63;102876.19;2089432;28;19929;-59
2023/01/27 01:12:50;;;;;;;;;;;;;;;15.37;49.48;102874.56;2088206;28;19932;-59
2023/01/27 01:13:53;;;;;;;;;;;;;;;15.38;49.54;102875.38;2089303;28;20278;-59
2023/01/27 01:14:57;;;;;;;;;;;;;;;15.37;49.60;102869.13;2088490;28;20310;-60
2023/01/27 01:16:05;;;;;;;;;;;;;;;15.37;49.68;102877.28;2087818;28;20028;-59
2023/01/27 01:17:07;;;;;;;;;;;;;;;15.36;49.39;102872.97;2088588;28;19964;-59
2023/01/27 01:18:11;;;;;;;;;;;;;;;15.37;49.64;102874.56;2088627;28;19931;-59
2023/01/27 01:19:13;;;;;;;;;;;;;;;15.36;49.69;102875.69;2088635;28;19928;-59
2023/01/27 01:20:15;;;;;;;;;;;;;;;15.37;49.49;102880.00;2088897;28;19925;-60
2023/01/27 01:21:17;;;;;;;;;;;;;;;15.36;49.39;102881.16;2088264;28;19929;-59
2023/01/27 01:22:20;;;;;;;;;;;;;;;15.36;49.50;102881.16;2088948;28;19933;-59
2023/01/27 01:23:21;;;;;;;;;;;;;;;15.35;49.51;102881.47;2088805;28;19974;-59
2023/01/27 01:24:24;;;;;;;;;;;;;;;15.36;49.70;102883.06;2088458;28;19928;-60
2023/01/27 01:25:26;;;;;;;;;;;;;;;15.35;49.63;102879.53;2087779;28;19955;-59
2023/01/27 01:26:31;;;;;;;;;;;;;;;15.36;49.60;102883.88;2087130;28;20007;-59
2023/01/27 01:27:32;;;;;;;;;;;;;;;15.35;49.63;102882.25;2088375;28;19929;-59
2023/01/27 01:28:35;;;;;;;;;;;;;;;15.35;49.52;102876.81;2088677;28;19935;-59
2023/01/27 01:29:37;;;;;;;;;;;;;;;15.36;49.62;102883.06;2088255;28;19928;-59
2023/01/27 01:30:40;;;;;;;;;;;;;;;15.35;49.65;102882.25;2087997;28;19979;-59
2023/01/27 01:31:43;;;;;;;;;;;;;;;15.35;49.52;102886.91;2088859;28;19983;-58
2023/01/27 01:32:45;;;;;;;;;;;;;;;15.35;49.46;102890.41;2088420;28;20837;-58
2023/01/27 01:33:47;;;;;;;;;;;;;;;15.35;49.68;102893.13;2088798;28;19929;-59
2023/01/27 01:34:50;;;;;;;;;;;;;;;15.34;49.46;102886.09;2086256;28;19937;-57
2023/01/27 01:35:51;;;;;;;;;;;;;;;15.35;49.46;102890.41;2087766;28;19940;-59
2023/01/27 01:36:54;;;;;;;;;;;;;;;15.34;49.53;102894.25;2085849;28;20503;-58
2023/01/27 01:37:56;;;;;;;;;;;;;;;15.35;49.52;102895.06;2086300;28;19929;-58
2023/01/27 01:38:58;;;;;;;;;;;;;;;15.34;49.55;102886.09;2086595;28;20937;-59
2023/01/27 01:40:00;;;;;;;;;;;;;;;15.34;49.47;102894.25;2085881;28;19929;-59
2023/01/27 01:41:03;;;;;;;;;;;;;;;15.34;49.57;102899.72;2087250;28;19937;-59
2023/01/27 01:42:05;;;;;;;;;;;;;;;15.35;49.59;102886.91;2085018;28;20491;-58
2023/01/27 01:43:12;;;;;;;;;;;;;;;15.34;49.58;102891.53;2086316;28;19929;-59
2023/01/27 01:44:20;;;;;;;;;;;;;;;15.34;49.47;102882.56;2086867;28;20384;-59
2023/01/27 01:45:43;;;;;;;;;;;;;;;15.34;49.40;102886.09;2088647;28;19929;-59
2023/01/27 01:46:47;;;;;;;;;;;;;;;15.31;49.48;102884.03;2088083;28;19925;-59
2023/01/27 01:47:49;;;;;;;;;;;;;;;15.33;49.61;102895.41;2088791;28;20478;-60
2023/01/27 01:48:53;;;;;;;;;;;;;;;15.34;49.66;102890.72;2087848;28;19983;-60
2023/01/27 01:49:56;;;;;;;;;;;;;;;15.33;49.59;102889.97;2087472;28;19963;-59
2023/01/27 01:51:02;;;;;;;;;;;;;;;15.33;49.55;102894.59;2088305;28;19935;-59
2023/01/27 01:52:06;;;;;;;;;;;;;;;15.32;49.70;102887.56;2088483;28;19928;-59
2023/01/27 01:53:10;;;;;;;;;;;;;;;15.32;49.36;102891.06;2085870;28;19928;-59
2023/01/27 01:54:14;;;;;;;;;;;;;;;15.33;49.65;102891.88;2086235;28;19936;-59
2023/01/27 01:55:16;;;;;;;;;;;;;;;15.33;49.48;102894.59;2085639;28;19933;-59
2023/01/27 01:56:22;;;;;;;;;;;;;;;15.32;49.43;102888.34;2087560;28;20276;-59
2023/01/27 01:57:26;;;;;;;;;;;;;;;15.32;49.49;102893.78;2087839;28;19925;-59
2023/01/27 01:58:29;;;;;;;;;;;;;;;15.32;49.63;102884.84;2087623;28;19929;-59
2023/01/27 01:59:35;;;;;;;;;;;;;;;15.33;49.40;102892.69;2087813;28;20396;-59
2023/01/27 02:05:12;;;;;;;;;;;;;;;15.32;49.60;102890.28;2093428;22;20118;-77
2023/01/27 02:06:14;;;;;;;;;;;;;;;15.31;49.40;102892.19;2073566;28;20307;-77
2023/01/27 02:07:20;;;;;;;;;;;;;;;15.31;49.49;102892.19;2078535;28;19975;-76
2023/01/27 02:08:28;;;;;;;;;;;;;;;15.31;49.80;102903.06;2068531;28;19934;-76
2023/01/27 02:09:31;;;;;;;;;;;;;;;15.31;49.55;102900.34;2071838;28;19929;-77
2023/01/27 02:10:33;;;;;;;;;;;;;;;15.30;49.35;102901.47;2067674;28;19945;-76
2023/01/27 02:11:36;;;;;;;;;;;;;;;15.31;49.40;102891.38;2082819;28;19929;-76
2023/01/27 02:12:38;;;;;;;;;;;;;;;15.30;49.54;102900.69;2078904;28;20716;-77
2023/01/27 02:13:42;;;;;;;;;;;;;;;15.30;49.58;102901.47;2071353;28;19930;-76
2023/01/27 02:14:44;;;;;;;;;;;;;;;15.31;49.29;102903.06;2079821;28;19936;-77
2023/01/27 02:15:47;;;;;;;;;;;;;;;15.30;49.58;102895.25;2080323;28;20480;-77
2023/01/27 02:16:49;;;;;;;;;;;;;;;15.30;49.57;102900.69;2082665;28;20457;-77
2023/01/27 02:17:52;;;;;;;;;;;;;;;15.31;49.52;102896.81;2071157;28;20021;-76
2023/01/27 02:18:54;;;;;;;;;;;;;;;15.31;49.51;102908.53;2069336;28;20188;-77
2023/01/27 02:20:05;;;;;;;;;;;;;;;15.29;49.46;102902.59;2065222;28;20411;-76
2023/01/27 02:21:09;;;;;;;;;;;;;;;15.29;49.56;102899.88;2070389;28;20841;-76
2023/01/27 02:22:16;;;;;;;;;;;;;;;15.30;49.40;102896.00;2079273;28;19929;-76
2023/01/27 02:23:27;;;;;;;;;;;;;;;15.30;49.39;102896.00;2071883;28;19960;-76
2023/01/27 02:24:35;;;;;;;;;;;;;;;15.30;49.47;102904.19;2074098;28;19977;-76
2023/01/27 02:25:44;;;;;;;;;;;;;;;15.29;49.54;102899.06;2060807;28;20743;-76
2023/01/27 02:26:46;;;;;;;;;;;;;;;15.29;49.59;102899.88;2069225;28;19979;-76
2023/01/27 02:27:49;;;;;;;;;;;;;;;15.29;49.45;102907.22;2077268;28;19936;-76
2023/01/27 02:28:53;;;;;;;;;;;;;;;15.29;49.65;102909.94;2073016;28;19929;-75
2023/01/27 02:29:56;;;;;;;;;;;;;;;15.28;49.50;102903.72;2069784;28;19967;-76
2023/01/27 02:30:58;;;;;;;;;;;;;;;15.28;49.46;102909.16;2074980;28;19929;-77
2023/01/27 02:32:01;;;;;;;;;;;;;;;15.29;49.50;102899.06;2062215;28;20682;-76
2023/01/27 02:33:05;;;;;;;;;;;;;;;15.28;49.58;102908.34;2061939;28;20383;-77
2023/01/27 02:34:10;;;;;;;;;;;;;;;15.29;49.44;102909.94;2070667;28;19937;-76
2023/01/27 02:35:14;;;;;;;;;;;;;;;15.27;49.44;102904.81;2071348;28;20401;-76
2023/01/27 02:36:17;;;;;;;;;;;;;;;15.28;49.59;102905.63;2074016;28;20503;-76
2023/01/27 02:37:19;;;;;;;;;;;;;;;15.28;49.50;102902.91;2080077;28;19937;-76
2023/01/27 02:38:22;;;;;;;;;;;;;;;15.28;49.67;102906.44;2081351;28;20483;-76
2023/01/27 02:39:27;;;;;;;;;;;;;;;15.27;49.48;102910.28;2065035;28;19936;-76
2023/01/27 02:40:30;;;;;;;;;;;;;;;15.27;49.47;102907.56;2063475;28;19929;-77
2023/01/27 02:41:36;;;;;;;;;;;;;;;15.27;49.36;102910.28;2063431;28;19934;-77
2023/01/27 02:42:38;;;;;;;;;;;;;;;15.27;49.55;102896.66;2063754;28;20456;-77
2023/01/27 02:43:40;;;;;;;;;;;;;;;15.26;49.45;102905.97;2071271;28;19936;-77
2023/01/27 02:44:43;;;;;;;;;;;;;;;15.27;49.76;102902.09;2071725;28;20027;-77
2023/01/27 02:45:45;;;;;;;;;;;;;;;15.26;49.52;102894.25;2065124;28;19926;-77
2023/01/27 02:46:48;;;;;;;;;;;;;;;15.27;49.40;102888.50;2063550;28;20340;-77
2023/01/27 02:47:50;;;;;;;;;;;;;;;15.26;49.61;102895.06;2069703;28;19929;-77
2023/01/27 02:48:54;;;;;;;;;;;;;;;15.26;49.56;102889.63;2062540;28;20378;-77
2023/01/27 02:49:56;;;;;;;;;;;;;;;15.26;49.51;102888.81;2054581;28;19969;-76
2023/01/27 02:50:59;;;;;;;;;;;;;;;15.26;49.34;102900.53;2061955;28;19946;-76
2023/01/27 02:52:02;;;;;;;;;;;;;;;15.26;49.63;102895.06;2070542;28;20552;-76
2023/01/27 02:53:06;;;;;;;;;;;;;;;15.26;49.50;102895.06;2070512;28;20301;-76
2023/01/27 02:54:10;;;;;;;;;;;;;;;15.26;49.50;102899.72;2078859;28;20464;-77
2023/01/27 02:55:12;;;;;;;;;;;;;;;15.25;49.28;102898.94;2077899;28;20474;-77
2023/01/27 02:56:14;;;;;;;;;;;;;;;15.26;49.44;102902.44;2073761;28;20351;-77
2023/01/27 02:57:19;;;;;;;;;;;;;;;15.25;49.49;102904.38;2066727;28;20024;-76
2023/01/27 02:58:34;;;;;;;;;;;;;;;15.26;49.39;102914.13;2069709;28;19936;-76
2023/01/27 02:59:48;;;;;;;;;;;;;;;15.25;49.37;102911.72;2068538;28;19933;-76
2023/01/27 03:00:51;;;;;;;;;;;;;;;15.24;49.54;102913.63;2087188;28;19929;-76
2023/01/27 03:01:54;;;;;;;;;;;;;;;15.24;49.33;102912.84;2092186;28;20308;-76
2023/01/27 03:02:55;;;;;;;;;;;;;;;15.24;49.54;102908.19;2065689;28;19934;-77
2023/01/27 03:03:59;;;;;;;;;;;;;;;15.25;49.47;102919.88;2067114;28;19993;-76
2023/01/27 03:05:01;;;;;;;;;;;;;;;15.24;49.46;102910.13;2068477;28;20000;-77
2023/01/27 03:06:04;;;;;;;;;;;;;;;15.25;49.37;102914.44;2070288;28;19930;-77
2023/01/27 03:07:06;;;;;;;;;;;;;;;15.24;49.29;102915.59;2071134;28;19996;-78
2023/01/27 03:08:09;;;;;;;;;;;;;;;15.23;49.50;102912.06;2077852;28;20245;-76
2023/01/27 03:09:10;;;;;;;;;;;;;;;15.24;49.21;102916.34;2086300;28;19948;-76
2023/01/27 03:10:13;;;;;;;;;;;;;;;15.23;49.38;102917.50;2071667;28;19964;-75
2023/01/27 03:12:18;;;;;;;;;;;;;;;15.24;49.48;102918.31;2070285;28;20446;-76
2023/01/27 03:12:40;;;;;;;;;;;;;;;15.23;49.36;102928.38;2070278;28;20395;-77
2023/01/27 03:13:42;;;;;;;;;;;;;;;15.24;49.32;102919.09;2070583;28;20055;-77
2023/01/27 03:18:48;;;;;;;;;;;;;;;15.22;49.31;102926.78;2069653;28;19984;-77
2023/01/27 03:19:52;;;;;;;;;;;;;;;15.23;49.47;102928.38;2066501;28;20440;-77
2023/01/27 03:21:00;;;;;;;;;;;;;;;15.22;49.54;102932.22;2073778;28;19925;-77
2023/01/27 03:22:02;;;;;;;;;;;;;;;15.22;49.34;102929.50;2064349;28;19930;-77
2023/01/27 03:23:07;;;;;;;;;;;;;;;15.22;49.51;102929.50;2070968;28;19930;-78
2023/01/27 03:24:10;;;;;;;;;;;;;;;15.22;49.40;102937.66;2067402;28;20497;-77
2023/01/27 03:25:13;;;;;;;;;;;;;;;15.22;49.29;102928.69;2060510;28;20016;-75
2023/01/27 03:26:15;;;;;;;;;;;;;;;15.22;49.17;102934.13;2059494;28;19965;-76
2023/01/27 03:27:22;;;;;;;;;;;;;;;15.21;49.40;102933.34;2062909;28;19961;-76
2023/01/27 03:29:53;;;;;;;;;;;;;;;15.20;49.47;102937.19;2075899;28;20430;-76
2023/01/27 03:30:11;;;;;;;;;;;;;;;15.21;49.53;102946.13;2084323;28;19967;-77
2023/01/27 03:31:21;;;;;;;;;;;;;;;15.22;49.45;102942.31;2069066;28;19969;-77
2023/01/27 03:32:27;;;;;;;;;;;;;;;15.20;49.22;102945.34;2070763;28;19926;-77
2023/01/27 03:33:48;;;;;;;;;;;;;;;15.20;49.42;102945.34;2071654;28;19937;-77
2023/01/27 03:35:00;;;;;;;;;;;;;;;15.20;49.15;102945.34;2076775;28;19929;-77
2023/01/27 03:46:56;;;;;;;;;;;;;;;15.18;49.46;102939.41;2072479;28;19929;-77
2023/01/27 03:47:58;;;;;;;;;;;;;;;15.18;49.26;102942.13;2066290;28;20393;-77
2023/01/27 03:49:01;;;;;;;;;;;;;;;15.17;49.04;102943.28;2073532;28;20399;-77
2023/01/27 03:50:09;;;;;;;;;;;;;;;15.18;49.35;102947.59;2073153;28;19933;-77
2023/01/27 03:51:12;;;;;;;;;;;;;;;15.18;49.41;102946.78;2068690;28;19933;-77
2023/01/27 03:52:14;;;;;;;;;;;;;;;15.10;49.31;102940.22;2067620;28;19930;-77
2023/01/27 03:53:16;;;;;;;;;;;;;;;15.17;49.28;102951.44;2074532;28;19929;-76
2023/01/27 03:54:19;;;;;;;;;;;;;;;15.17;49.12;102951.44;2067940;28;19937;-76
2023/01/27 03:55:22;;;;;;;;;;;;;;;15.17;49.30;102948.72;2059473;28;19930;-76
2023/01/27 03:56:24;;;;;;;;;;;;;;;15.17;49.17;102950.63;2068105;28;19936;-76
2023/01/27 03:57:26;;;;;;;;;;;;;;;15.16;49.21;102943.59;2066121;28;19930;-75
2023/01/27 03:58:29;;;;;;;;;;;;;;;15.17;49.17;102947.91;2076448;28;19929;-76
2023/01/27 03:59:33;;;;;;;;;;;;;;;15.16;49.21;102949.81;2074971;28;19933;-76
2023/01/27 04:00:35;;;;;;;;;;;;;;;15.17;49.39;102959.59;2075096;28;20450;-76
2023/01/27 04:01:38;;;;;;;;;;;;;;;15.16;49.37;102957.97;2077146;28;20754;-76
2023/01/27 04:06:56;;;;;;;;;;;;;;;15.15;49.20;102959.09;2067295;28;20012;-77
2023/01/27 04:07:58;;;;;;;;;;;;;;;15.15;49.06;102958.28;2060558;28;20033;-77
2023/01/27 04:09:01;;;;;;;;;;;;;;;15.16;49.20;102955.25;2077179;28;20315;-77
2023/01/27 04:10:03;;;;;;;;;;;;;;;15.14;49.26;102957.53;2078685;28;20426;-78
2023/01/27 04:12:25;;;;;;;;;;;;;;;15.15;49.18;102958.28;2081896;28;20011;-77
2023/01/27 04:13:27;;;;;;;;;;;;;;;15.14;49.12;102960.25;2075862;28;19929;-77
2023/01/27 04:14:31;;;;;;;;;;;;;;;15.14;49.23;102957.53;2072185;28;19976;-77
2023/01/27 04:15:34;;;;;;;;;;;;;;;15.14;49.21;102956.72;2080301;28;19981;-77
2023/01/27 04:16:37;;;;;;;;;;;;;;;15.14;49.15;102957.53;2085405;28;19929;-77
2023/01/27 04:17:40;;;;;;;;;;;;;;;15.14;49.27;102954.78;2082111;28;19929;-77
2023/01/27 04:18:45;;;;;;;;;;;;;;;15.13;49.40;102955.91;2079404;28;19926;-77
2023/01/27 04:19:49;;;;;;;;;;;;;;;15.13;49.03;102961.34;2076267;28;19936;-77
2023/01/27 04:20:50;;;;;;;;;;;;;;;15.12;49.18;102957.03;2079819;28;20327;-77
2023/01/27 04:21:53;;;;;;;;;;;;;;;15.13;48.99;102961.34;2069057;28;19926;-78
2023/01/27 04:22:56;;;;;;;;;;;;;;;15.12;49.16;102959.75;2069685;28;19937;-77
2023/01/27 04:23:59;;;;;;;;;;;;;;;15.13;49.22;102966.00;2068370;28;20562;-77
2023/01/27 04:25:02;;;;;;;;;;;;;;;15.11;49.25;102962.78;2080701;28;19929;-78
2023/01/27 04:26:03;;;;;;;;;;;;;;;15.12;49.31;102961.66;2086917;28;19981;-79
2023/01/27 04:27:07;;;;;;;;;;;;;;;15.12;49.28;102964.38;2079860;28;19948;-79
2023/01/27 04:28:08;;;;;;;;;;;;;;;15.11;49.24;102963.56;2069122;28;20019;-77
2023/01/27 04:29:12;;;;;;;;;;;;;;;15.12;49.25;102964.38;2071731;28;19929;-77
2023/01/27 04:30:14;;;;;;;;;;;;;;;15.12;49.30;102969.81;2071669;28;20447;-77
2023/01/27 04:31:18;;;;;;;;;;;;;;;15.10;49.33;102967.41;2071440;28;20408;-77
2023/01/27 04:32:21;;;;;;;;;;;;;;;15.11;49.01;102971.72;2062655;28;19934;-77
2023/01/27 04:33:22;;;;;;;;;;;;;;;15.11;49.31;102971.72;2061620;28;19930;-77
2023/01/27 04:34:26;;;;;;;;;;;;;;;15.11;49.09;102979.13;2070982;28;20399;-78
2023/01/27 04:35:28;;;;;;;;;;;;;;;15.11;49.23;102973.69;2065554;28;20317;-77
2023/01/27 04:36:40;;;;;;;;;;;;;;;15.10;49.37;102982.94;2066173;28;20381;-78
2023/01/27 04:37:43;;;;;;;;;;;;;;;15.11;49.38;102984.56;2079114;28;19929;-77
2023/01/27 04:38:45;;;;;;;;;;;;;;;15.10;49.03;102981.03;2079207;28;19929;-77
2023/01/27 04:39:48;;;;;;;;;;;;;;;15.10;49.09;102982.94;2072304;28;19929;-78
2023/01/27 04:40:49;;;;;;;;;;;;;;;15.09;49.11;102975.91;2068304;28;19926;-78
2023/01/27 04:41:52;;;;;;;;;;;;;;;15.10;49.34;102985.66;2070723;28;19925;-77
2023/01/27 04:42:54;;;;;;;;;;;;;;;15.02;49.21;102971.75;2076280;28;19930;-77
2023/01/27 04:43:56;;;;;;;;;;;;;;;15.08;49.12;102988.69;2070922;28;19932;-78
2023/01/27 04:44:58;;;;;;;;;;;;;;;15.09;49.31;102984.88;2063319;28;20492;-77
2023/01/27 04:46:00;;;;;;;;;;;;;;;15.09;49.39;102987.59;2070450;28;20351;-77
2023/01/27 04:47:04;;;;;;;;;;;;;;;15.09;49.16;102987.59;2068543;28;20420;-77
2023/01/27 04:48:07;;;;;;;;;;;;;;;15.08;49.25;102991.41;2063340;28;19926;-77
2023/01/27 04:49:09;;;;;;;;;;;;;;;15.09;49.06;102984.88;2063468;28;19930;-77
2023/01/27 04:50:11;;;;;;;;;;;;;;;15.09;49.24;102995.75;2067589;28;19929;-77
2023/01/27 04:51:14;;;;;;;;;;;;;;;15.08;49.29;102985.97;2079995;28;20427;-78
2023/01/27 04:52:15;;;;;;;;;;;;;;;15.07;49.03;102984.38;2079316;28;20001;-78
2023/01/27 04:53:18;;;;;;;;;;;;;;;15.04;49.06;102976.88;2078919;28;19975;-77
2023/01/27 04:54:20;;;;;;;;;;;;;;;15.08;49.16;102990.63;2080274;28;19937;-76
2023/01/27 04:55:22;;;;;;;;;;;;;;;15.07;49.22;102987.09;2079003;28;19929;-76
2023/01/27 04:56:25;;;;;;;;;;;;;;;15.07;49.28;102989.81;2069075;28;19959;-76
2023/01/27 04:57:28;;;;;;;;;;;;;;;15.07;49.12;102984.38;2075454;28;19929;-77
2023/01/27 04:58:29;;;;;;;;;;;;;;;15.06;49.04;102982.78;2084176;28;19928;-77
2023/01/27 04:59:32;;;;;;;;;;;;;;;15.07;49.19;102984.38;2083393;28;19971;-76
2023/01/27 05:00:34;;;;;;;;;;;;;;;15.07;49.09;102983.56;2079441;28;19929;-76
2023/01/27 05:01:37;;;;;;;;;;;;;;;15.07;49.02;102987.09;2079725;28;19972;-77
2023/01/27 05:02:40;;;;;;;;;;;;;;;15.06;48.96;102980.06;2087388;28;19946;-77
2023/01/27 05:03:43;;;;;;;;;;;;;;;15.06;49.09;102980.06;2079385;28;20423;-76
2023/01/27 05:04:44;;;;;;;;;;;;;;;15.06;49.06;102977.34;2077278;28;20328;-77
2023/01/27 05:05:47;;;;;;;;;;;;;;;15.06;48.97;102988.25;2078005;28;20304;-77
2023/01/27 05:06:50;;;;;;;;;;;;;;;15.06;49.02;102992.88;2066123;28;19952;-77
2023/01/27 05:07:51;;;;;;;;;;;;;;;15.06;48.84;102987.44;2070470;28;19930;-77
2023/01/27 05:08:55;;;;;;;;;;;;;;;15.06;48.95;102987.44;2078760;28;20549;-77
2023/01/27 05:09:56;;;;;;;;;;;;;;;15.05;48.91;102985.84;2082198;28;20332;-77
2023/01/27 05:10:59;;;;;;;;;;;;;;;15.05;49.15;102981.19;2074811;28;19933;-76
2023/01/27 05:12:01;;;;;;;;;;;;;;;15.05;48.94;102985.84;2073932;28;19933;-78
2023/01/27 05:13:03;;;;;;;;;;;;;;;15.05;49.19;102986.63;2076804;28;19929;-76
2023/01/27 05:14:05;;;;;;;;;;;;;;;15.05;49.16;102980.41;2071105;28;20548;-76
2023/01/27 05:15:08;;;;;;;;;;;;;;;15.04;49.19;102990.47;2065291;28;20016;-76
2023/01/27 05:16:11;;;;;;;;;;;;;;;15.04;49.17;102987.75;2068203;28;19933;-76
2023/01/27 05:17:13;;;;;;;;;;;;;;;15.04;48.86;102990.47;2070874;28;20486;-76
2023/01/27 05:18:17;;;;;;;;;;;;;;;15.04;49.16;102990.47;2078086;28;19929;-76
2023/01/27 05:19:19;;;;;;;;;;;;;;;15.04;49.04;102993.19;2077849;28;19972;-76
2023/01/27 05:20:22;;;;;;;;;;;;;;;15.03;49.11;102988.88;2071642;28;20424;-76
2023/01/27 05:21:27;;;;;;;;;;;;;;;15.04;49.31;102995.91;2070266;28;19929;-76
2023/01/27 05:22:28;;;;;;;;;;;;;;;15.03;49.06;102994.31;2070889;28;19933;-76
2023/01/27 05:23:37;;;;;;;;;;;;;;;15.03;48.88;102997.03;2065796;28;20469;-76
2023/01/27 05:24:38;;;;;;;;;;;;;;;15.04;48.87;102987.75;2079931;28;19983;-75
2023/01/27 05:25:42;;;;;;;;;;;;;;;15.03;48.96;102988.88;2076913;28;19968;-75
2023/01/27 05:26:45;;;;;;;;;;;;;;;15.03;48.81;102988.88;2077625;28;20553;-75
2023/01/27 05:27:46;;;;;;;;;;;;;;;15.02;49.17;102992.69;2078302;28;19933;-75
2023/01/27 05:28:50;;;;;;;;;;;;;;;15.02;48.99;102998.13;2064853;28;20004;-75
2023/01/27 05:29:52;;;;;;;;;;;;;;;15.02;49.02;102996.22;2064112;28;19930;-76
2023/01/27 05:31:00;;;;;;;;;;;;;;;15.01;48.84;102997.31;2075292;28;20371;-76
2023/01/27 05:32:02;;;;;;;;;;;;;;;15.02;48.94;102998.13;2067288;28;19929;-76
2023/01/27 05:33:04;;;;;;;;;;;;;;;15.01;48.92;103002.78;2062348;28;19996;-76
2023/01/27 05:34:08;;;;;;;;;;;;;;;15.02;48.79;103003.56;2074893;28;19956;-76
2023/01/27 05:35:10;;;;;;;;;;;;;;;15.01;48.90;102996.53;2076790;28;20472;-76
2023/01/27 05:36:13;;;;;;;;;;;;;;;15.01;48.90;102997.31;2078725;28;20671;-76
2023/01/27 05:37:15;;;;;;;;;;;;;;;15.02;49.10;102995.41;2085240;28;20019;-76
2023/01/27 05:38:18;;;;;;;;;;;;;;;15.01;48.90;102994.59;2079386;28;19929;-76
2023/01/27 05:39:20;;;;;;;;;;;;;;;15.01;48.99;102999.25;2078628;28;19925;-76
2023/01/27 05:40:22;;;;;;;;;;;;;;;15.01;49.04;102991.09;2086659;28;19963;-76
2023/01/27 05:41:24;;;;;;;;;;;;;;;15.01;49.00;103000.03;2073958;28;20031;-76
2023/01/27 05:42:26;;;;;;;;;;;;;;;15.00;49.13;102993.00;2062223;28;19956;-76
2023/01/27 05:43:29;;;;;;;;;;;;;;;15.00;48.80;102997.66;2062376;28;19929;-76
2023/01/27 05:44:32;;;;;;;;;;;;;;;15.01;48.97;102996.53;2079523;28;20412;-75
2023/01/27 05:45:34;;;;;;;;;;;;;;;15.00;49.13;102987.56;2077954;28;19979;-76
2023/01/27 05:46:37;;;;;;;;;;;;;;;15.00;48.95;102992.22;2065885;28;19929;-77
2023/01/27 05:47:39;;;;;;;;;;;;;;;15.00;48.73;102994.94;2078036;28;19925;-76
2023/01/27 05:48:43;;;;;;;;;;;;;;;15.00;48.84;102992.22;2077530;28;19941;-76
2023/01/27 05:49:46;;;;;;;;;;;;;;;15.01;48.86;102988.38;2067981;28;19972;-76
2023/01/27 05:50:55;;;;;;;;;;;;;;;15.00;48.96;102994.94;2066962;28;19929;-76
2023/01/27 05:51:58;;;;;;;;;;;;;;;15.00;49.12;102990.28;2067175;28;20465;-77
2023/01/27 05:52:59;;;;;;;;;;;;;;;15.00;49.05;102984.03;2073363;28;19925;-76
2023/01/27 05:54:02;;;;;;;;;;;;;;;15.00;48.86;102986.75;2086858;28;20419;-75
2023/01/27 05:55:05;;;;;;;;;;;;;;;15.00;49.05;102984.03;2077244;28;20402;-77
2023/01/27 05:56:09;;;;;;;;;;;;;;;15.00;49.02;102984.03;2070736;28;19929;-76
2023/01/27 05:57:11;;;;;;;;;;;;;;;14.99;48.94;102980.53;2075969;28;19929;-76
2023/01/27 05:58:13;;;;;;;;;;;;;;;14.99;48.92;102980.53;2078649;28;19929;-77
2023/01/27 05:59:16;;;;;;;;;;;;;;;14.99;48.97;102974.28;2079270;28;19929;-77